Time;durP1;ratioP1;P1;durP2;ratioP2;P2;SDS_P1;SDS_P2;PMS_P1;PMS_P2;Temp;Humidity;BMP_temperature;BMP_pressure;BME280_temperature;BME280_humidity;BME280_pressure;Samples;Min_cycle;Max_cycle;Signal;HPM_P1;HPM_P2
2022/03/05 00:01:24;;;;;;;38.60;20.27;;;-2.00;99.90;;;;;;5133126;27;20396;-58
2022/03/05 00:03:50;;;;;;;34.65;21.25;;;-2.00;99.90;;;;;;5153169;27;20121;-59
2022/03/05 00:06:16;;;;;;;36.53;19.77;;;-1.90;99.90;;;;;;5153472;27;20023;-59
2022/03/05 00:08:41;;;;;;;41.17;21.58;;;-2.00;99.90;;;;;;5153264;27;20098;-60
2022/03/05 00:11:07;;;;;;;35.83;20.42;;;-2.00;99.90;;;;;;5142274;27;20021;-58
2022/03/05 00:13:35;;;;;;;34.92;21.42;;;-1.90;99.90;;;;;;5132733;27;20031;-60
2022/03/05 00:16:02;;;;;;;34.45;20.25;;;-1.90;99.90;;;;;;5132870;27;20071;-57
2022/03/05 00:18:28;;;;;;;39.92;19.95;;;-1.90;99.90;;;;;;5115130;27;20043;-59
2022/03/05 00:20:53;;;;;;;37.75;21.15;;;-1.80;99.90;;;;;;5132859;27;20015;-56
2022/03/05 00:23:19;;;;;;;39.53;21.15;;;-1.80;99.90;;;;;;5146274;27;20370;-57
2022/03/05 00:25:45;;;;;;;43.33;22.23;;;-1.70;99.90;;;;;;5150998;27;20102;-61
2022/03/05 00:28:11;;;;;;;36.25;21.73;;;-1.70;99.90;;;;;;5136386;27;20038;-59
2022/03/05 00:30:36;;;;;;;36.85;20.35;;;-1.60;99.90;;;;;;5135757;27;20522;-59
2022/03/05 00:33:02;;;;;;;38.80;22.15;;;-1.60;99.90;;;;;;5153161;27;20038;-58
2022/03/05 00:35:29;;;;;;;42.53;21.17;;;-1.50;99.90;;;;;;5115613;27;20031;-57
2022/03/05 00:37:55;;;;;;;34.83;20.40;;;-1.50;99.90;;;;;;5137040;27;20375;-56
2022/03/05 00:40:21;;;;;;;41.83;22.25;;;-1.40;99.90;;;;;;5152930;27;20034;-57
2022/03/05 00:42:47;;;;;;;43.28;22.25;;;-1.40;99.90;;;;;;5149565;27;20023;-59
2022/03/05 00:45:13;;;;;;;36.15;21.45;;;-1.40;99.90;;;;;;5133604;27;20104;-61
2022/03/05 00:47:39;;;;;;;43.50;22.05;;;-1.40;99.90;;;;;;5132430;27;20164;-56
2022/03/05 00:50:08;;;;;;;43.55;21.33;;;-1.30;99.90;;;;;;5126598;27;20088;-58
2022/03/05 00:52:34;;;;;;;36.78;21.75;;;-1.30;99.90;;;;;;5147983;27;20027;-61
2022/03/05 00:55:00;;;;;;;38.63;22.70;;;-1.30;99.90;;;;;;5153083;27;20127;-60
2022/03/05 00:57:26;;;;;;;41.67;22.00;;;-1.30;99.90;;;;;;5151161;27;20097;-59
2022/03/05 00:59:51;;;;;;;52.83;22.88;;;-1.20;99.90;;;;;;5152830;27;20033;-60
2022/03/05 01:02:17;;;;;;;38.00;22.40;;;-1.20;99.90;;;;;;5152671;27;20445;-61
2022/03/05 01:04:43;;;;;;;39.33;22.02;;;-1.20;99.90;;;;;;5153076;27;20095;-61
2022/03/05 01:07:08;;;;;;;39.25;22.25;;;-1.10;99.90;;;;;;5138130;27;20497;-60
2022/03/05 01:09:34;;;;;;;38.17;20.88;;;-1.10;99.90;;;;;;5138515;27;20026;-55
2022/03/05 01:12:00;;;;;;;39.25;22.65;;;-1.10;99.90;;;;;;5138348;27;20018;-59
2022/03/05 01:14:25;;;;;;;40.25;22.80;;;-1.10;99.90;;;;;;5157039;27;20058;-58
2022/03/05 01:16:51;;;;;;;37.75;21.95;;;-1.00;99.90;;;;;;5144047;27;20447;-55
2022/03/05 01:19:17;;;;;;;42.78;24.70;;;-1.00;99.90;;;;;;5137378;27;20039;-58
2022/03/05 01:21:42;;;;;;;36.67;21.80;;;-0.90;99.90;;;;;;5156791;27;20086;-60
2022/03/05 01:24:08;;;;;;;40.05;22.45;;;-0.90;99.90;;;;;;5155050;27;20015;-58
2022/03/05 01:26:34;;;;;;;41.65;21.95;;;-0.90;99.90;;;;;;5119574;27;20034;-61
2022/03/05 01:28:59;;;;;;;40.80;21.80;;;-0.90;99.90;;;;;;5151739;27;20080;-60
2022/03/05 01:31:25;;;;;;;39.17;22.20;;;-0.90;99.90;;;;;;5156168;27;20071;-61
2022/03/05 01:33:51;;;;;;;37.17;23.05;;;-0.90;99.90;;;;;;5155951;27;20023;-59
2022/03/05 01:36:16;;;;;;;36.80;22.20;;;-0.90;99.90;;;;;;5147696;27;20115;-61
2022/03/05 01:38:42;;;;;;;40.22;22.15;;;-0.90;99.90;;;;;;5146407;27;20050;-61
2022/03/05 01:41:07;;;;;;;43.45;22.13;;;-1.00;99.90;;;;;;5148965;27;20051;-60
2022/03/05 01:43:33;;;;;;;39.80;23.38;;;-1.00;99.90;;;;;;5134883;27;20030;-61
2022/03/05 01:45:59;;;;;;;43.45;22.38;;;-1.00;99.90;;;;;;5140746;27;20440;-61
2022/03/05 01:48:24;;;;;;;35.55;22.15;;;-1.00;99.90;;;;;;5135998;27;20134;-62
2022/03/05 01:50:50;;;;;;;38.60;22.55;;;-1.00;99.90;;;;;;5145488;27;20050;-61
2022/03/05 01:53:16;;;;;;;44.30;23.48;;;-1.00;99.90;;;;;;5136790;27;20042;-61
2022/03/05 01:55:43;;;;;;;47.10;25.23;;;-1.00;99.90;;;;;;5135566;27;20023;-60
2022/03/05 01:58:09;;;;;;;40.92;23.00;;;-1.10;99.90;;;;;;5135932;27;20114;-61
2022/03/05 02:00:35;;;;;;;39.17;22.10;;;-1.10;99.90;;;;;;5095390;28;20106;-59
2022/03/05 02:03:00;;;;;;;38.33;22.83;;;-1.20;99.90;;;;;;5146402;27;20018;-61
2022/03/05 02:05:26;;;;;;;45.28;24.23;;;-1.20;99.90;;;;;;5154515;27;20465;-61
2022/03/05 02:07:52;;;;;;;37.95;21.85;;;-1.20;99.90;;;;;;5155673;27;20029;-62
2022/03/05 02:10:17;;;;;;;43.28;24.52;;;-1.30;99.90;;;;;;5155103;27;20131;-60
2022/03/05 02:12:44;;;;;;;43.88;22.95;;;-1.30;99.90;;;;;;5155507;27;20026;-60
2022/03/05 02:15:10;;;;;;;39.88;22.70;;;-1.40;99.90;;;;;;5155936;27;20477;-62
2022/03/05 02:17:37;;;;;;;38.55;22.73;;;-1.40;99.90;;;;;;5152004;27;20120;-59
2022/03/05 02:20:05;;;;;;;47.50;23.73;;;-1.40;99.90;;;;;;5149669;27;20067;-61
2022/03/05 02:22:31;;;;;;;41.85;22.88;;;-1.40;99.90;;;;;;5148146;27;20026;-61
2022/03/05 02:24:59;;;;;;;42.83;23.10;;;-1.40;99.90;;;;;;5155396;27;20090;-61
2022/03/05 02:27:27;;;;;;;45.30;23.02;;;-1.40;99.90;;;;;;5146221;27;20106;-61
2022/03/05 02:29:53;;;;;;;44.35;23.13;;;-1.40;99.90;;;;;;5136065;27;20011;-61
2022/03/05 02:32:19;;;;;;;47.08;24.20;;;-1.40;99.90;;;;;;5134684;27;20030;-61
2022/03/05 02:34:45;;;;;;;48.33;24.80;;;-1.40;99.90;;;;;;5134397;27;20050;-59
2022/03/05 02:37:13;;;;;;;39.08;23.88;;;-1.40;99.90;;;;;;5116170;27;20635;-61
2022/03/05 02:39:39;;;;;;;41.42;24.25;;;-1.40;99.90;;;;;;5116069;27;20061;-61
2022/03/05 02:42:05;;;;;;;46.10;24.10;;;-1.50;99.90;;;;;;5134755;27;20015;-62
2022/03/05 02:44:31;;;;;;;44.90;23.80;;;-1.50;99.90;;;;;;5137232;27;20023;-62
2022/03/05 02:46:58;;;;;;;43.00;25.02;;;-1.60;99.90;;;;;;5155097;27;20106;-60
2022/03/05 02:49:24;;;;;;;52.83;24.52;;;-1.70;99.90;;;;;;5154945;27;20027;-61
2022/03/05 02:51:50;;;;;;;41.92;23.90;;;-1.70;99.90;;;;;;5121292;27;20033;-61
2022/03/05 02:54:16;;;;;;;46.50;22.75;;;-1.70;99.90;;;;;;5135008;27;20611;-59
2022/03/05 02:56:42;;;;;;;43.15;24.40;;;-1.80;99.90;;;;;;5136262;27;20019;-60
2022/03/05 02:59:07;;;;;;;43.30;25.05;;;-1.80;99.90;;;;;;5134355;27;20027;-61
2022/03/05 03:01:33;;;;;;;44.78;24.13;;;-1.80;99.90;;;;;;5134228;27;20023;-61
2022/03/05 03:03:59;;;;;;;44.88;22.55;;;-1.80;99.90;;;;;;5134396;27;20072;-61
2022/03/05 03:06:24;;;;;;;41.03;24.10;;;-1.80;99.90;;;;;;5134008;27;20015;-61
2022/03/05 03:08:50;;;;;;;45.40;23.92;;;-1.70;99.90;;;;;;5134143;27;20019;-59
2022/03/05 03:11:16;;;;;;;44.40;23.30;;;-1.70;99.90;;;;;;5115576;27;20016;-61
2022/03/05 03:13:41;;;;;;;42.90;24.63;;;-1.60;99.90;;;;;;5144427;27;20033;-61
2022/03/05 03:16:08;;;;;;;45.67;25.75;;;-1.60;99.90;;;;;;5153947;27;20019;-61
2022/03/05 03:18:34;;;;;;;46.83;24.40;;;-1.60;99.90;;;;;;5152444;27;20043;-61
2022/03/05 03:20:59;;;;;;;45.95;23.92;;;-1.50;99.90;;;;;;5154427;27;20102;-61
2022/03/05 03:23:25;;;;;;;51.10;24.80;;;-1.50;99.90;;;;;;5152400;27;20015;-60
2022/03/05 03:25:51;;;;;;;45.92;24.65;;;-1.50;99.90;;;;;;5139798;27;20050;-61
2022/03/05 03:28:16;;;;;;;43.47;23.30;;;-1.40;99.90;;;;;;5153358;27;20101;-61
2022/03/05 03:30:42;;;;;;;42.25;23.90;;;-1.40;99.90;;;;;;5154107;27;20026;-61
2022/03/05 03:33:08;;;;;;;44.40;24.98;;;-1.30;99.90;;;;;;5154513;27;20053;-61
2022/03/05 03:35:35;;;;;;;44.25;25.33;;;-1.30;99.90;;;;;;5122340;27;20511;-61
2022/03/05 03:38:00;;;;;;;43.72;24.33;;;-1.20;99.90;;;;;;5133377;27;20039;-61
2022/03/05 03:40:26;;;;;;;42.40;23.60;;;-1.20;99.90;;;;;;5152994;27;20031;-60
2022/03/05 03:42:52;;;;;;;40.75;23.35;;;-1.20;99.90;;;;;;5154347;27;20022;-59
2022/03/05 03:45:19;;;;;;;40.95;22.25;;;-1.10;99.90;;;;;;5153867;27;20462;-60
2022/03/05 03:47:48;;;;;;;42.63;24.58;;;-1.10;99.90;;;;;;5153930;27;20027;-61
2022/03/05 03:50:16;;;;;;;45.15;25.27;;;-1.00;99.90;;;;;;5154050;27;20111;-61
2022/03/05 03:52:42;;;;;;;47.08;24.05;;;-1.00;99.90;;;;;;5151781;27;20031;-60
2022/03/05 03:55:10;;;;;;;42.20;24.65;;;-1.00;99.90;;;;;;5152223;27;20070;-61
2022/03/05 03:57:37;;;;;;;42.88;23.85;;;-0.90;99.90;;;;;;5151750;27;20020;-61
2022/03/05 04:00:05;;;;;;;43.88;23.15;;;-0.90;99.90;;;;;;5149019;27;20023;-60
2022/03/05 04:02:30;;;;;;;42.03;22.70;;;-0.80;99.90;;;;;;5133003;27;20088;-59
2022/03/05 04:04:56;;;;;;;43.90;23.33;;;-0.90;99.90;;;;;;5114762;27;20023;-61
2022/03/05 04:10:06;;;;;;;47.70;25.60;;;-0.80;99.90;;;;;;5133106;27;20171;-61
2022/03/05 04:12:32;;;;;;;46.05;24.52;;;-0.80;99.90;;;;;;5132855;27;20030;-59
2022/03/05 04:14:58;;;;;;;41.20;22.80;;;-0.80;99.90;;;;;;5146640;27;20022;-59
2022/03/05 04:17:24;;;;;;;41.47;23.15;;;-0.70;99.90;;;;;;5152872;27;20039;-60
2022/03/05 04:19:50;;;;;;;46.97;24.33;;;-0.80;99.90;;;;;;5153481;27;20026;-61
2022/03/05 04:22:16;;;;;;;46.05;24.95;;;-0.70;99.90;;;;;;5151826;27;20039;-60
2022/03/05 04:24:42;;;;;;;45.65;24.55;;;-0.70;99.90;;;;;;5145796;27;20077;-61
2022/03/05 04:27:08;;;;;;;43.60;24.85;;;-0.80;99.90;;;;;;5146182;27;20436;-61
2022/03/05 04:29:34;;;;;;;44.58;25.95;;;-0.80;99.90;;;;;;5151594;27;20066;-60
2022/03/05 04:32:00;;;;;;;45.25;24.02;;;-0.80;99.90;;;;;;5153153;27;20393;-61
2022/03/05 04:34:26;;;;;;;46.85;25.30;;;-0.80;99.90;;;;;;5153183;27;20422;-61
2022/03/05 04:36:52;;;;;;;46.97;24.08;;;-0.80;99.90;;;;;;5151438;27;20023;-60
2022/03/05 04:39:17;;;;;;;45.42;26.17;;;-0.80;99.90;;;;;;5151407;27;20142;-61
2022/03/05 04:41:43;;;;;;;48.88;25.88;;;-0.80;99.90;;;;;;5139793;27;20059;-59
2022/03/05 04:44:09;;;;;;;57.33;25.90;;;-0.80;99.90;;;;;;5132515;27;20072;-59
2022/03/05 04:46:35;;;;;;;48.22;24.55;;;-0.80;99.90;;;;;;5144235;27;20026;-61
2022/03/05 04:49:01;;;;;;;51.95;28.73;;;-0.80;99.90;;;;;;5153020;27;20445;-59
2022/03/05 04:51:27;;;;;;;46.08;26.50;;;-0.80;99.90;;;;;;5142485;27;20044;-59
2022/03/05 04:53:53;;;;;;;45.60;23.85;;;-0.90;99.90;;;;;;5146326;27;20450;-58
2022/03/05 04:56:18;;;;;;;48.42;27.25;;;-0.90;99.90;;;;;;5149657;27;20034;-62
2022/03/05 04:58:44;;;;;;;48.85;23.83;;;-0.80;99.90;;;;;;5135024;27;20462;-61
2022/03/05 05:01:10;;;;;;;49.88;25.92;;;-0.80;99.90;;;;;;5139530;27;20355;-61
2022/03/05 05:03:36;;;;;;;50.00;27.17;;;-0.80;99.90;;;;;;5152189;27;20453;-60
2022/03/05 05:06:01;;;;;;;47.65;25.33;;;-0.80;99.90;;;;;;5152938;27;20106;-61
2022/03/05 05:08:28;;;;;;;52.03;28.30;;;-0.80;99.90;;;;;;5153121;27;20056;-61
2022/03/05 05:10:53;;;;;;;46.55;26.33;;;-0.80;99.90;;;;;;5152727;27;20018;-60
2022/03/05 05:13:19;;;;;;;51.25;27.50;;;-0.80;99.90;;;;;;5152879;27;20031;-59
2022/03/05 05:15:45;;;;;;;42.25;24.63;;;-0.80;99.90;;;;;;5152667;27;20037;-60
2022/03/05 05:18:11;;;;;;;44.05;24.90;;;-0.80;99.90;;;;;;5150259;27;20038;-60
2022/03/05 05:20:37;;;;;;;49.67;27.10;;;-0.90;99.90;;;;;;5140312;27;20050;-61
2022/03/05 05:23:03;;;;;;;47.05;26.13;;;-0.90;99.90;;;;;;5147265;27;20477;-59
2022/03/05 05:25:29;;;;;;;43.42;24.48;;;-0.90;99.90;;;;;;5151254;27;20022;-61
2022/03/05 05:27:54;;;;;;;45.88;25.63;;;-0.90;99.90;;;;;;5142778;27;20362;-60
2022/03/05 05:30:20;;;;;;;43.80;25.58;;;-0.90;99.90;;;;;;5132632;27;20028;-61
2022/03/05 05:32:46;;;;;;;46.83;26.60;;;-0.90;99.90;;;;;;5152336;27;20023;-60
2022/03/05 05:35:11;;;;;;;52.15;26.25;;;-0.90;99.90;;;;;;5152508;27;20033;-61
2022/03/05 05:37:37;;;;;;;44.53;25.83;;;-0.90;99.90;;;;;;5111234;28;20343;-61
2022/03/05 05:40:03;;;;;;;43.88;25.13;;;-0.90;99.90;;;;;;5131967;27;20051;-62
2022/03/05 05:42:29;;;;;;;46.67;27.83;;;-0.90;99.90;;;;;;5131615;27;20029;-59
2022/03/05 05:44:55;;;;;;;53.83;25.13;;;-0.80;99.90;;;;;;5132019;27;20019;-60
2022/03/05 05:47:20;;;;;;;57.22;25.90;;;-0.80;99.90;;;;;;5139721;27;20735;-62
2022/03/05 05:49:46;;;;;;;50.90;27.15;;;-0.80;99.90;;;;;;5150402;27;20078;-61
2022/03/05 05:52:12;;;;;;;44.50;26.33;;;-0.80;99.90;;;;;;5154223;27;20529;-61
2022/03/05 05:54:37;;;;;;;49.78;28.15;;;-0.80;99.90;;;;;;5151707;27;20548;-61
2022/03/05 05:57:04;;;;;;;44.53;26.55;;;-0.70;99.90;;;;;;5136559;27;20027;-61
2022/03/05 05:59:30;;;;;;;47.53;27.20;;;-0.70;99.90;;;;;;5132326;27;20450;-62
2022/03/05 06:01:56;;;;;;;52.17;29.42;;;-0.70;99.90;;;;;;5136402;27;20038;-62
2022/03/05 06:04:21;;;;;;;51.40;26.48;;;-0.70;99.90;;;;;;5151381;27;20023;-59
2022/03/05 06:06:47;;;;;;;48.72;25.60;;;-0.60;99.90;;;;;;5123985;27;20047;-62
2022/03/05 06:09:13;;;;;;;50.83;27.15;;;-0.60;99.90;;;;;;5147909;27;20079;-59
2022/03/05 06:11:38;;;;;;;49.80;26.60;;;-0.60;99.90;;;;;;5154776;27;20580;-59
2022/03/05 06:14:06;;;;;;;53.45;28.38;;;-0.50;99.90;;;;;;5134475;27;20012;-60
2022/03/05 06:16:32;;;;;;;54.28;26.77;;;-0.50;99.90;;;;;;5134775;27;20362;-61
2022/03/05 06:18:57;;;;;;;45.97;26.10;;;-0.40;99.90;;;;;;5135105;27;20039;-62
2022/03/05 06:21:23;;;;;;;40.63;22.52;;;-0.30;99.90;;;;;;5134808;27;20030;-61
2022/03/05 06:23:49;;;;;;;43.05;25.00;;;-0.30;99.90;;;;;;5132634;27;20023;-61
2022/03/05 06:26:15;;;;;;;43.78;25.20;;;-0.20;99.90;;;;;;5146998;27;20493;-61
2022/03/05 06:28:40;;;;;;;39.22;23.48;;;-0.10;99.90;;;;;;5153416;27;20473;-61
2022/03/05 06:31:06;;;;;;;48.63;26.88;;;-0.10;99.90;;;;;;5141334;27;20024;-60
2022/03/05 06:33:32;;;;;;;46.92;25.00;;;-0.10;99.90;;;;;;5120403;27;20026;-60
2022/03/05 06:35:58;;;;;;;48.42;25.20;;;0.00;99.90;;;;;;5148599;27;20027;-60
2022/03/05 06:38:24;;;;;;;47.95;27.60;;;0.00;99.90;;;;;;5134314;27;20023;-59
2022/03/05 06:40:50;;;;;;;41.67;24.35;;;0.10;99.90;;;;;;5132913;27;20027;-60
2022/03/05 06:43:15;;;;;;;50.35;23.75;;;0.10;99.90;;;;;;5139516;27;20023;-61
2022/03/05 06:45:42;;;;;;;43.97;25.08;;;0.10;99.90;;;;;;5151551;27;20528;-61
2022/03/05 06:48:07;;;;;;;45.55;23.92;;;0.20;99.90;;;;;;5133370;27;20478;-61
2022/03/05 06:50:33;;;;;;;59.88;24.85;;;0.30;99.90;;;;;;5134365;27;20066;-57
2022/03/05 06:52:59;;;;;;;85.20;27.40;;;0.40;99.90;;;;;;5134866;27;20027;-57
2022/03/05 06:55:25;;;;;;;111.47;54.33;;;0.50;99.90;;;;;;5142487;27;20059;-57
2022/03/05 06:57:52;;;;;;;56.88;33.55;;;0.50;99.90;;;;;;5135576;27;20018;-57
2022/03/05 07:00:18;;;;;;;55.40;34.22;;;0.60;99.90;;;;;;5154147;27;20022;-61
2022/03/05 07:02:44;;;;;;;58.80;30.13;;;0.60;99.90;;;;;;5152692;27;20019;-60
2022/03/05 07:05:10;;;;;;;47.97;24.25;;;0.60;99.90;;;;;;5153349;27;20402;-60
2022/03/05 07:07:36;;;;;;;50.50;27.65;;;0.80;99.90;;;;;;5154603;27;20023;-55
2022/03/05 07:10:04;;;;;;;43.63;27.52;;;0.80;99.90;;;;;;5154572;27;20022;-61
2022/03/05 07:12:29;;;;;;;42.75;24.13;;;1.00;99.90;;;;;;5154328;27;20031;-59
2022/03/05 07:14:55;;;;;;;47.67;26.33;;;1.10;99.90;;;;;;5154672;27;20022;-57
2022/03/05 07:17:21;;;;;;;55.92;33.17;;;1.20;99.90;;;;;;5138168;27;20062;-62
2022/03/05 07:19:46;;;;;;;56.33;33.30;;;1.20;99.90;;;;;;5135092;27;20114;-60
2022/03/05 07:22:12;;;;;;;44.30;24.48;;;1.30;99.90;;;;;;5134023;27;20023;-61
2022/03/05 07:24:37;;;;;;;43.88;23.98;;;1.50;99.90;;;;;;5133747;27;20061;-60
2022/03/05 07:27:03;;;;;;;41.55;24.48;;;1.40;99.90;;;;;;5124734;27;20075;-61
2022/03/05 07:29:29;;;;;;;68.13;35.47;;;1.20;99.90;;;;;;5118074;27;20066;-60
2022/03/05 07:31:55;;;;;;;45.38;25.80;;;1.30;99.90;;;;;;5133892;27;20050;-58
2022/03/05 07:34:21;;;;;;;50.83;29.23;;;1.20;99.90;;;;;;5133779;27;20031;-59
2022/03/05 07:36:47;;;;;;;50.13;25.83;;;1.10;99.90;;;;;;5133540;27;20020;-62
2022/03/05 07:39:12;;;;;;;43.95;24.20;;;1.10;99.90;;;;;;5133636;27;20019;-61
2022/03/05 07:41:39;;;;;;;43.05;23.88;;;1.20;99.90;;;;;;5133601;27;20041;-62
2022/03/05 07:44:06;;;;;;;43.95;24.48;;;1.20;99.90;;;;;;5133538;27;20034;-58
2022/03/05 07:46:32;;;;;;;45.78;24.35;;;1.20;99.90;;;;;;5141993;27;20026;-59
2022/03/05 07:48:59;;;;;;;47.15;23.98;;;1.30;99.90;;;;;;5144288;27;20105;-55
2022/03/05 07:51:25;;;;;;;43.17;24.15;;;1.40;99.90;;;;;;5142544;27;20362;-59
2022/03/05 07:53:51;;;;;;;34.97;21.95;;;1.40;99.90;;;;;;5154015;27;20536;-61
2022/03/05 07:56:16;;;;;;;44.75;24.83;;;1.40;99.90;;;;;;5133664;27;20075;-60
2022/03/05 07:58:42;;;;;;;52.58;25.77;;;1.40;99.90;;;;;;5135042;27;20035;-62
2022/03/05 08:01:08;;;;;;;41.33;23.33;;;1.50;99.90;;;;;;5152326;27;20034;-60
2022/03/05 08:03:33;;;;;;;44.30;23.42;;;1.60;99.90;;;;;;5153492;27;20015;-61
2022/03/05 08:06:00;;;;;;;41.50;23.38;;;1.70;99.90;;;;;;5135314;27;20026;-61
2022/03/05 08:08:25;;;;;;;36.53;23.02;;;1.90;99.90;;;;;;5132981;27;20484;-60
2022/03/05 08:10:51;;;;;;;37.03;22.05;;;1.80;99.90;;;;;;5132870;27;20027;-58
2022/03/05 08:13:17;;;;;;;34.63;21.23;;;1.70;99.90;;;;;;5132998;27;20386;-61
2022/03/05 08:15:42;;;;;;;44.08;22.90;;;1.70;99.90;;;;;;5134129;27;20034;-61
2022/03/05 08:18:08;;;;;;;33.20;20.55;;;1.60;99.90;;;;;;5132542;27;20108;-60
2022/03/05 08:20:34;;;;;;;37.63;20.50;;;1.70;99.90;;;;;;5133695;27;20023;-60
2022/03/05 08:23:00;;;;;;;39.60;20.85;;;1.70;99.90;;;;;;5132735;27;20023;-61
2022/03/05 08:25:27;;;;;;;38.75;22.88;;;1.80;99.90;;;;;;5114843;27;20027;-57
2022/03/05 08:27:52;;;;;;;37.10;21.75;;;1.70;99.90;;;;;;5149349;27;20076;-61
2022/03/05 08:30:20;;;;;;;34.22;19.98;;;1.70;99.90;;;;;;5152959;27;20053;-62
2022/03/05 08:32:46;;;;;;;33.05;20.48;;;1.80;99.90;;;;;;5112040;28;20024;-62
2022/03/05 08:35:13;;;;;;;35.97;20.50;;;2.00;99.90;;;;;;5116594;27;20027;-59
2022/03/05 08:37:40;;;;;;;31.52;19.35;;;2.30;99.90;;;;;;5138081;27;20849;-59
2022/03/05 08:40:08;;;;;;;33.15;19.58;;;2.50;99.90;;;;;;5132529;27;20034;-61
2022/03/05 08:42:34;;;;;;;45.88;21.80;;;2.60;99.90;;;;;;5151493;27;20026;-58
2022/03/05 08:45:00;;;;;;;35.42;22.20;;;2.60;99.90;;;;;;5153312;27;20105;-59
2022/03/05 08:47:26;;;;;;;45.33;22.70;;;2.70;99.90;;;;;;5136504;27;20031;-59
2022/03/05 08:49:51;;;;;;;37.08;19.33;;;2.80;99.90;;;;;;5114234;28;20539;-59
2022/03/05 08:52:17;;;;;;;36.78;18.70;;;2.80;99.90;;;;;;5133685;27;20031;-59
2022/03/05 08:54:43;;;;;;;34.15;19.63;;;3.00;99.90;;;;;;5113844;28;20393;-58
2022/03/05 08:57:11;;;;;;;37.08;20.98;;;3.10;99.90;;;;;;5143797;27;20171;-59
2022/03/05 08:59:38;;;;;;;40.22;21.15;;;3.10;99.90;;;;;;5132847;27;20110;-59
2022/03/05 09:02:04;;;;;;;43.78;22.75;;;3.10;99.90;;;;;;5132338;28;20094;-59
2022/03/05 09:04:31;;;;;;;34.65;18.20;;;3.40;99.90;;;;;;5132198;28;20023;-59
2022/03/05 09:06:56;;;;;;;35.50;20.48;;;3.50;99.90;;;;;;5132205;28;20027;-58
2022/03/05 09:09:23;;;;;;;32.63;20.45;;;3.50;99.90;;;;;;5131691;28;20114;-59
2022/03/05 09:11:48;;;;;;;35.97;18.40;;;3.60;99.90;;;;;;5132293;28;20106;-58
2022/03/05 09:14:14;;;;;;;30.08;17.33;;;3.50;99.70;;;;;;5132274;28;20031;-58
2022/03/05 09:16:41;;;;;;;31.27;18.65;;;3.60;98.90;;;;;;5131949;28;20058;-57
2022/03/05 09:19:07;;;;;;;36.65;18.10;;;3.20;98.60;;;;;;5131602;28;20061;-59
2022/03/05 09:21:34;;;;;;;43.33;28.90;;;3.10;99.70;;;;;;5131981;28;20510;-56
2022/03/05 09:24:01;;;;;;;33.15;21.83;;;3.30;99.40;;;;;;5131950;28;20019;-59
2022/03/05 09:26:27;;;;;;;33.65;19.50;;;3.80;99.40;;;;;;5133307;27;20023;-57
2022/03/05 09:28:53;;;;;;;34.65;18.95;;;3.90;99.10;;;;;;5136250;27;20027;-59
2022/03/05 09:31:19;;;;;;;34.75;19.08;;;4.20;98.70;;;;;;5136226;27;20050;-58
2022/03/05 09:33:45;;;;;;;31.10;18.55;;;4.20;98.20;;;;;;5136167;27;20465;-57
2022/03/05 09:36:11;;;;;;;31.23;19.90;;;4.10;97.10;;;;;;5117626;27;20087;-59
2022/03/05 09:38:37;;;;;;;43.30;20.58;;;4.00;97.30;;;;;;5135673;27;20027;-59
2022/03/05 09:41:04;;;;;;;44.33;20.80;;;4.20;97.60;;;;;;5139834;27;20022;-58
2022/03/05 09:43:30;;;;;;;34.28;20.80;;;4.50;97.40;;;;;;5156149;27;20027;-59
2022/03/05 09:45:58;;;;;;;34.72;20.45;;;4.50;96.80;;;;;;5155625;27;20023;-59
2022/03/05 09:48:24;;;;;;;63.47;20.90;;;4.70;97.70;;;;;;5156140;27;20039;-59
2022/03/05 09:50:50;;;;;;;39.72;20.77;;;4.90;96.40;;;;;;5152111;27;20134;-59
2022/03/05 09:53:16;;;;;;;32.28;20.70;;;5.00;95.60;;;;;;5135600;27;20118;-59
2022/03/05 09:55:42;;;;;;;37.42;20.52;;;4.90;95.40;;;;;;5136547;27;20523;-59
2022/03/05 09:58:07;;;;;;;37.10;20.70;;;5.20;94.80;;;;;;5135556;27;20138;-59
2022/03/05 10:00:33;;;;;;;33.78;19.60;;;5.50;94.80;;;;;;5136391;27;20355;-58
2022/03/05 10:02:59;;;;;;;29.95;18.73;;;5.60;93.70;;;;;;5151097;27;20431;-59
2022/03/05 10:05:26;;;;;;;30.67;18.17;;;5.60;92.30;;;;;;5135438;27;20023;-59
2022/03/05 10:08:15;;;;;;;29.17;18.55;;;5.70;92.80;;;;;;5112571;27;20022;-58
2022/03/05 10:10:54;;;;;;;29.10;18.83;;;6.00;91.40;;;;;;5155800;27;20027;-59
2022/03/05 10:13:28;;;;;;;36.83;19.75;;;5.90;90.80;;;;;;5137400;27;20412;-59
2022/03/05 10:15:59;;;;;;;40.13;23.70;;;5.80;91.50;;;;;;5153036;27;20116;-59
2022/03/05 10:18:29;;;;;;;30.38;20.52;;;5.90;91.40;;;;;;5134976;27;20038;-56
2022/03/05 10:20:55;;;;;;;30.88;18.77;;;6.10;91.30;;;;;;5136163;27;20516;-59
2022/03/05 10:23:21;;;;;;;32.70;20.02;;;6.20;90.90;;;;;;5121473;27;20477;-59
2022/03/05 10:25:53;;;;;;;29.50;17.80;;;6.10;91.30;;;;;;5136242;27;20030;-58
2022/03/05 10:28:27;;;;;;;29.95;18.10;;;6.30;90.30;;;;;;5153333;27;20083;-60
2022/03/05 10:30:58;;;;;;;28.33;17.60;;;6.20;88.90;;;;;;5155398;27;20018;-59
2022/03/05 10:33:43;;;;;;;29.48;16.88;;;6.20;85.40;;;;;;5148653;27;20041;-59
2022/03/05 10:36:17;;;;;;;27.45;17.38;;;6.00;87.60;;;;;;5139419;27;20041;-59
2022/03/05 10:38:53;;;;;;;27.00;16.50;;;5.90;87.80;;;;;;5144391;27;20027;-58
2022/03/05 10:41:22;;;;;;;31.10;16.50;;;6.00;89.20;;;;;;5140525;27;20014;-59
2022/03/05 10:44:15;;;;;;;30.20;16.63;;;6.20;88.20;;;;;;5153803;27;20461;-59
2022/03/05 10:46:46;;;;;;;27.55;16.73;;;6.70;85.10;;;;;;5145788;27;20027;-59
2022/03/05 10:49:14;;;;;;;30.40;16.05;;;6.70;84.20;;;;;;5134623;27;20019;-59
2022/03/05 10:51:40;;;;;;;25.50;15.60;;;6.90;83.30;;;;;;5134526;27;20031;-59
2022/03/05 10:54:06;;;;;;;29.48;15.75;;;6.50;84.70;;;;;;5134544;27;20107;-58
2022/03/05 10:56:33;;;;;;;29.77;16.88;;;6.20;85.60;;;;;;5135518;27;20057;-59
2022/03/05 10:59:03;;;;;;;24.35;16.40;;;6.20;86.80;;;;;;5134246;27;20019;-59
2022/03/05 11:01:30;;;;;;;26.27;15.45;;;6.70;86.70;;;;;;5134200;27;20019;-58
2022/03/05 11:03:56;;;;;;;23.92;14.88;;;6.60;81.60;;;;;;5144125;27;20019;-59
2022/03/05 11:06:23;;;;;;;17.95;12.43;;;6.40;84.30;;;;;;5154337;27;20072;-58
2022/03/05 11:08:49;;;;;;;24.17;13.60;;;6.80;83.80;;;;;;5148556;27;20109;-61
2022/03/05 11:11:17;;;;;;;24.02;12.43;;;6.60;82.70;;;;;;5139723;27;20119;-62
2022/03/05 11:13:43;;;;;;;26.38;16.52;;;7.00;80.90;;;;;;5154615;27;20031;-61
2022/03/05 11:16:10;;;;;;;24.27;14.70;;;6.80;81.90;;;;;;5154546;27;20071;-60
2022/03/05 11:18:37;;;;;;;25.13;14.85;;;6.90;83.40;;;;;;5149258;27;20039;-62
2022/03/05 11:21:03;;;;;;;24.05;15.00;;;7.40;82.30;;;;;;5133946;27;20069;-61
2022/03/05 11:23:29;;;;;;;26.88;14.80;;;7.70;79.60;;;;;;5147448;27;20034;-63
2022/03/05 11:25:56;;;;;;;25.48;13.82;;;8.00;77.50;;;;;;5152968;27;20019;-62
2022/03/05 11:28:25;;;;;;;19.67;12.25;;;8.20;76.80;;;;;;5135873;27;20336;-61
2022/03/05 11:30:54;;;;;;;18.80;13.10;;;8.40;73.60;;;;;;5152586;27;20369;-59
2022/03/05 11:33:38;;;;;;;32.80;20.42;;;9.00;72.50;;;;;;5154218;27;20393;-59
2022/03/05 11:36:27;;;;;;;561.53;330.02;;;8.80;72.50;;;;;;5153495;27;20026;-59
2022/03/05 11:39:10;;;;;;;102.18;57.17;;;9.40;70.00;;;;;;5153004;27;20019;-60
2022/03/05 11:41:52;;;;;;;259.77;131.98;;;8.80;67.90;;;;;;5125796;27;20106;-59
2022/03/05 11:44:19;;;;;;;168.43;96.47;;;9.50;68.50;;;;;;5132569;27;20104;-58
2022/03/05 11:46:45;;;;;;;209.57;111.10;;;10.10;64.70;;;;;;5145972;27;20019;-59
2022/03/05 11:49:13;;;;;;;45.67;27.48;;;10.80;61.50;;;;;;5135757;27;20019;-59
2022/03/05 11:51:50;;;;;;;21.38;14.80;;;11.30;59.20;;;;;;5132995;27;20375;-60
2022/03/05 11:54:17;;;;;;;24.70;12.95;;;12.10;56.40;;;;;;5134433;27;20023;-59
2022/03/05 11:57:10;;;;;;;16.08;11.25;;;11.50;51.80;;;;;;5132787;27;20512;-60
2022/03/05 11:59:38;;;;;;;26.85;14.07;;;11.50;52.70;;;;;;5134223;27;20022;-59
2022/03/05 12:02:04;;;;;;;22.35;14.40;;;10.30;53.80;;;;;;5133326;27;20046;-59
2022/03/05 12:04:31;;;;;;;24.55;15.73;;;8.80;56.40;;;;;;5132728;27;20548;-58
2022/03/05 12:07:03;;;;;;;21.13;14.27;;;8.40;60.20;;;;;;5133112;27;20023;-59
2022/03/05 12:09:37;;;;;;;24.13;14.25;;;8.70;60.70;;;;;;5133843;27;20019;-60
2022/03/05 12:12:04;;;;;;;28.98;16.15;;;8.30;59.50;;;;;;5153257;27;20071;-59
2022/03/05 12:14:55;;;;;;;24.42;15.25;;;8.10;62.50;;;;;;5152842;27;20019;-58
2022/03/05 12:17:22;;;;;;;42.65;17.08;;;7.90;63.30;;;;;;5152974;27;20102;-59
2022/03/05 12:19:48;;;;;;;44.85;21.90;;;7.30;64.50;;;;;;5132717;27;20014;-60
2022/03/05 12:22:15;;;;;;;30.67;17.83;;;7.10;65.80;;;;;;5153614;27;20518;-58
2022/03/05 12:24:42;;;;;;;31.40;18.50;;;6.70;67.00;;;;;;5135157;27;20019;-58
2022/03/05 12:27:14;;;;;;;21.90;15.18;;;6.80;68.30;;;;;;5132858;27;20023;-60
2022/03/05 12:29:50;;;;;;;21.60;14.73;;;6.40;68.90;;;;;;5148157;27;20031;-60
2022/03/05 12:32:17;;;;;;;27.05;16.20;;;6.40;70.40;;;;;;5153270;27;20049;-60